Ac Dc Converters Import to India

Connect2India provides real time data for Ac Dc Converters import, historical Ac Dc Converters import analysis, current demand in overseas countries and import price of Ac Dc Converters.

Ac Dc Converters

Ac Dc Converters import data

Date HS Code Product Description Origin Port Destination Port Quantity Value (INR in Million) Unit Per Unit (INR)
2016-09-30 85044090 CONVERTER, AC-DC 1-479-609-21 SNC-RX550N(PART FOR SECURITYCAMERA) CHINA Delhi Air Cargo 1 0.0104 PCS 10390.0
2016-10-01 85049090 AC/DC CONVERTER (PART# 6696950) (SPARE FOR VENTILATOR) SWEDEN Delhi Air Cargo 2 0.0282 PCS 14120.0
2016-10-01 85044029 94Y8077 900W PS AC-DC CONVERTER; ADP; INTERNAL ENCLOSED ASSEMBLY; 900WATTS (POWER SUPPLY FOR COMPUTER) (WARRANTY/MAINTEN SINGAPORE Banglore Air Cargo 1 0.0105 UNT 10500.0
2016-10-04 85044010 AC-DC CONVERTERS(AKF-15D15C) CHINA Banglore Air Cargo 1 0.0015 NOS 1540.0
2016-10-04 85044010 AC/DC ADAPTERS,CONVERTERS,CHAGERS(EA-PS 3032-10B) CHINA Banglore Air Cargo 1 0.0303 NOS 30284.0
2016-10-04 85044010 AC/DC ADAPTERS,CONVERTERS,CHARGES(EA-3032-10B) CHINA Banglore Air Cargo 1 0.0303 NOS 30284.0
2016-10-04 85044010 AC/DC ADAPTERS,CONVERTERS,CHARGES(EA-EL 3160-60) CHINA Banglore Air Cargo 1 0.0645 NOS 64456.0
2016-10-04 85044010 AC/DC ADAPTERS,CONVERTERS,CHARGES(EA-PS 3032-10B) CHINA Banglore Air Cargo 1 0.0303 NOS 30284.0
2016-10-04 85044029 FW755 1600W PWSP AC-DC CONVERTER; ADP; INTERNAL ENCLOSED ASSEMBLY; 1600WATTS (POWER SUPPLY FOR COMPUTER) (WARRANTY/MAINT THAILAND Banglore Air Cargo 2 0.0531 UNT 26537.0
2016-10-04 85044090 0957-2479 PWR-SPLY-AC-DC ADAPTER (STATIC CONVERTER FOR ADP) CHINA Delhi Air Cargo 14 0.0097 PCS 694.0
2016-10-04 85044090 187111160,AC-TO-DC CONVERTER,V/IN:115V/400HZ,3PHASE,V/O:28VDC/20A(USING FOR AEROSPACE PURPOSE)(NOT FOR SALE) ISRAEL Banglore Air Cargo 4 0.9854 NOS 246339.0
2016-10-05 85299090 CONVERTER, AC-DC,1-479-609-21,SNC-RX550N(PARTS FOR SECURITYCAMERA) CHINA Delhi Air Cargo 1 0.011 PCS 10992.0
2016-10-05 85044090 CPN:PFE1000FA-48 FULL BRICK AC-DC CONVERTER SINGAPORE Banglore Air Cargo 12 0.2741 PCS 22839.0
2016-10-05 85044010 3BHE033380R0001 IC203_REV01 DC-AC CONVERTER SWITZERLAND Banglore Air Cargo 40 0.8095 PCS 20237.0
2016-10-05 85044029 AC-DC CONVERTER MODEL NO. AQC100-12S 457974760160(PO NO:3800049698) TAIWAN Delhi Air Cargo 2 0.0155 PCS 7736.0
2016-10-05 85044029 POWER SUPPLY AC DC CONVERTER P/N.DPP-25-5 SINGAPORE Banglore Air Cargo 2 0.0054 PCS 2720.0
2016-10-05 85044029 POWER SUPPLY AC DC CONVERTER P/N.HWS100A-24/A SINGAPORE Banglore Air Cargo 2 0.0077 PCS 3866.0
2016-10-05 85044029 POWER SUPPLY AC DC CONVERTER P/N.HWS1500-24 SINGAPORE Banglore Air Cargo 2 0.0882 PCS 44098.0
2016-10-05 85044029 POWER SUPPLY AC DC CONVERTER P/N.LWT50H-5FF SINGAPORE Banglore Air Cargo 1 0.0076 PCS 7588.0
2016-10-05 85044029 POWER SUPPLY AC DC CONVERTER P/N.ZUP36-12 SINGAPORE Banglore Air Cargo 2 0.1024 PCS 51186.0
2016-10-05 85044029 POWER SUPPLY AC DC CONVERTER P/N.ZUP36-6 SINGAPORE Banglore Air Cargo 1 0.0407 PCS 40734.0
2016-10-05 85044090 AC-DC CONVERTERS P/N.LPS253-C SINGAPORE Hyderabad Air Cargo 19 0.2791 UNT 14689.0
2016-10-06 85044090 POWER SUPPLY- 5V DC. (AC-DC CONVERTER) MODEL NO: ATC30-5S-A5. PART NO: 457944560180 ( RADAR PARTS ) TAIWAN Delhi Air Cargo 5 0.0133 NOS 2659.0
2016-10-06 85044090 POWER SUPPLY-24V DC (AC-DC CONVERTER) MODEL NO: AQC100-24S-A2 PART NO: 457944570171 ( RADAR PARTS ) TAIWAN Delhi Air Cargo 3 0.0165 NOS 5501.0
2016-10-06 85044090 AC-DC CONVERTER P/NO.TEX 120-124 SINGAPORE Hyderabad Air Cargo 27 0.3348 UNT 12401.0
2016-10-06 85044090 AC-DC CONVERTER,SK700-112(FOR CAPTIVE CONSUMPTION) JAPAN Delhi Air Cargo 1 0.0785 PCS 78464.0
2016-10-10 39269099 AC DC CONVERTER PLASTIC BODY (60829 PCS) CHINA Bombay Air Cargo 1443 0.2951 KGS 204.0
2016-10-10 85044029 24R2720 AC-DC CONVERTER;ADP; INTERNAL ENCLOSED ASSEMBLY; 670WATTS (POWER SUPPLY FOR COMPUTER) (WARRANTY/MAINTENANCE SUPP THAILAND Banglore Air Cargo 2 0.0086 PCS 4299.0
2016-10-10 85044090 2140-0039 AC/DC CONVERTER 24V 300W MALAYSIA Chennai Air Cargo 1 5.0E-4 NOS 497.0
2016-10-10 85044090 2210-0056 AC/DC CONVERTER 24V 100W MALAYSIA Chennai Air Cargo 1 5.0E-4 NOS 497.0
2016-10-10 85044090 2210-0057 AC/DC CONVERTER 24V 150W MALAYSIA Chennai Air Cargo 1 5.0E-4 NOS 497.0
2016-10-13 85044029 69Y5843 AC-DC CONVERTER;ADP;INTERNAL ENCLOSED ASSEMBLY;2320WATTS (POWER SUPPLY) (WARRANTY /MAINTENANCE SUPPORT PURPOSE) CHINA Banglore Air Cargo 2 0.0371 PCS 18546.0
2016-10-13 85044029 AC-DC CONVERTER MODEL NO. AJC-24S 457971230233(PO NO:4100040426)(RADAR PARTS) TAIWAN Delhi Air Cargo 48 0.0914 PCS 1904.0
2016-10-13 85044029 AC-DC CONVERTER MODEL NO.AQFV480U-24S A TYPE 457971830178(PO NO:4100040426)(RADAR PARTS) TAIWAN Delhi Air Cargo 225 1.4374 PCS 6388.0
2016-10-13 85044029 AC DC CONVERTER P/N 1136345 ( SP. FOR PROPULSION SYSTEM FORTUG ) GERMANY Bombay Air Cargo 3 0.1211 NOS 40370.0
2016-10-13 85044029 AL205 AC-DC CONVERTER;ADP;INTERNAL ENCLOSED ASSEMBLY;350 WATTS (POWER SUPPLY) (WARRANTY /MAINTENANCE SUPPORT PURPOSE) CHINA Banglore Air Cargo 20 0.062 PCS 3098.0
2016-10-14 85044090 0957-2479 PWR-SPLY-AC-DC ADAPTER (STATIC CONVERTER FOR ADP) CHINA Delhi Air Cargo 7 0.0055 PCS 786.0
2016-10-14 85044090 AC DC CONVERTER MODULE - 453561638983 (PARTS FORCOLOUR DOPPLER ULTRASOUND SCANNER) UNITED STATES Chennai Air Cargo 1 0.0284 PCS 28375.0
2016-10-15 85044090 AC-DC CONVERTER EXTERNAL PLUG IN 1 O/P 12W 2.4A 5V, MCEXT5V15WC2, BEPO 4100041810 SINGAPORE Banglore Air Cargo 21 0.0433 NOS 2064.0
2016-10-15 85044090 AC TO DC CONVERTER -PBA15F-12-N [ FOR MFG USE ] JAPAN Banglore Air Cargo 500 0.5857 PCS 1171.0
2016-10-15 90279090 SPARES FOR AUTOMATIC LABORATORY INSTRUMENTS-3204-400-001 CONVERTER DC-AC COMPRESSOR COOLING GERMANY Bombay Air Cargo 2 0.0678 PCS 33897.0
2016-10-17 85299090 CONVERTER UNIT, AC-DC(PSA-047),1-487-646-12,XIS-70HM(PARTS FOR SECURITY CAMERA) CHINA Delhi Air Cargo 1 0.0167 PCS 16658.0
2016-10-17 85299090 CONVERTER UNIT, AC-DC,1-487-988-12,SNC-CH280(PARTS FOR SECURITY CAMERA) CHINA Delhi Air Cargo 1 0.0046 PCS 4594.0
2016-10-17 85044090 AC/DC CONVERTER 12V 1.3A 15W ZWS15B-12/A EHFP (PARTS OF C-ARM IMAGE INTENSIFIER SYSTEM) MALAYSIA Bombay Air Cargo 5 0.0102 PCS 2034.0
2016-10-19 85423100 NCP1077STAT3G AC TO DC SWITCHING CONVERTER OFF-LINE SWITCHER65KHZ T/R 4-PIN(3+TAB) SOT-223 (INTEGRATED CIRCUIT)(F149) MALAYSIA Banglore Air Cargo 8000 0.1523 NOS 19.0
2016-10-20 85049090 3EHE428210P0001 VOLTAGE INDICATOR BVW 3230A 4200V INPUT;45 4200V AC/DC TEMP(FOR FREQUENCY CONVERTER) SWITZERLAND Banglore Air Cargo 20 0.4745 PCS 23723.0
2016-10-21 85044029 39J4836 AC-DC CONVERTER [POWER SUPPLY] [WARRANTY/ MAINTENANCE SUPPORT] CHINA Banglore Air Cargo 1 0.0707 PCS 70660.0
2016-10-21 85044090 AC DC CONVERTER MODULE - 453561719471 (PARTS FORCOLOUR DOPPLER ULTRASOUND SCANNER) UNITED STATES Chennai Air Cargo 1 0.0276 PCS 27565.0
2016-10-24 85044090 AC DC CONVERTER MODULE - 453561451354 (PARTS FORCOLOUR DOPPLER ULTRASOUND SCANNER) UNITED STATES Chennai Air Cargo 1 0.0276 PCS 27586.0
2016-10-25 85049090 A5E03357409 SINAMICS PWB PART DC LINK BUSBAR SET DC/AC 690V(PART OF CONVERTER) GERMANY Bombay Air Cargo 1 0.0415 UNT 41542.0
2016-10-25 85044090 AC-DC CONVERTER 115/230V I/P, FARM1T23, BEPO 3800048978 SINGAPORE Banglore Air Cargo 30 0.1606 NOS 5352.0
2016-10-25 85044090 AC-DC CONVERTER 150W, VE-PUJJ-EVV, BEPO 4100041273 SINGAPORE Banglore Air Cargo 2 0.0632 NOS 31621.0
2016-10-26 85044029 69Y5894 AC-DC CONVERTER;ADP;INTERNAL ENCLOSED ASSEMBLY;2980WATTS (POWER SUPPLY (FOR COMPUTER))(WARRANTY/MAINTANCE SUPPOR CHINA Banglore Air Cargo 2 0.0162 PCS 8078.0
2016-10-26 85044029 80P3677 AC-DC CONVERTER;TELECOM;INTERNAL ENCLOSED ASSEMBLY;670WATTS (POWER SUPPLY (FOR COUMPUTER))(WARRANTY/MAINTANCE SU TUNISIA Banglore Air Cargo 2 0.1394 PCS 69679.0
2016-10-26 85044029 94Y8287 AC-DC CONVERTER;ADP;INTERNAL ENCLOSED ASSEMBLY;460WATTS (POWER SUPPLY (FOR COMPUTER))(WARRANTY/MAINTANCE SUPPORT CHINA Banglore Air Cargo 1 0.0052 PCS 5210.0
2016-10-26 85044029 AL204 AC-DC CONVERTER; ADP;INTERNAL ENCLOSED ASSEMBLY;430WATTS (POWER SUPPLY(FOR COMPUTER))(WARRANTY/MAINTANCE SUPPORT P CHINA Banglore Air Cargo 4 0.0122 PCS 3054.0
2016-10-26 85044029 AL205 AC-DC CONVERTER; ADP;INTERNAL ENCLOSED ASSEMBLY;350WATTS (POWER SUPPLY(FOR COMPUTER))(WARRANTY/MAINTANCE SUPPORT P CHINA Banglore Air Cargo 20 0.0639 PCS 3196.0
2016-10-27 85044090 0957-2479 PWR-SPLY-AC-DC ADAPTER (STATIC CONVERTER FOR ADP) CHINA Delhi Air Cargo 1 0.0022 PCS 2208.0
2016-10-27 85044090 133773 REV A00 A31-2K-120V-A5-60L-01928 DC/AC SINEWAVE INVERTER 2000 VA OUTPUT(DC TO AC CONVERTER) UNITED STATES Nhava Sheva Sea 1 0.441 NOS 440976.0
2016-10-28 85044090 AC DC CONVERTER MODULE - 453561451354 (PARTS FORCOLOUR DOPPLER ULTRASOUND SCANNER) UNITED STATES Chennai Air Cargo 1 0.0276 PCS 27586.0
2016-10-28 85044090 AC DC CONVERTER MODULE - 453561451354 (PARTS FORCOLOUR DOPPLER ULTRASOUND SCANNER) UNITED STATES Chennai Air Cargo 1 0.0344 PCS 34351.0
2016-10-28 85044090 AC/DC CONVERTER 12V 1.3A 15W ZWS15B-12/A EHFP (PARTS OF C-ARM IMAGE INTENSIFIER SYSTEM) MALAYSIA Bombay Air Cargo 11 0.0193 PCS 1752.0
2016-10-28 85044090 AC/DC CONVERTER 12V 1.3A 15W ZWS15B-12/A EHFP (PARTS OF C-ARM INTENSIFIER SYSTEM) MALAYSIA Bombay Air Cargo 1 0.0018 PCS 1752.0
2016-10-31 85044090 STAIC CONVERTER FOR TELECOM 48V DC TO AC 300W MODEL NO. ZB-300-S ( CAPTIVE USE ) CHINA Delhi Air Cargo 30 0.0599 PCS 1995.0
2016-10-31 85044090 STATIC CONVERTER FOR TELECOM 48V DC TO AC 1500W MODEL NO. ZB-1500-S ( CAPTIVE USE ) CHINA Delhi Air Cargo 25 0.2125 PCS 8499.0
2016-10-31 85044090 STATIC CONVERTER FOR TELECOM 48V DC TO AC 600W MODEL NO. ZB-600-S ( CAPTIVE USE ) CHINA Delhi Air Cargo 30 0.1153 PCS 3843.0
2016-11-01 85044029 94Y8304 AC-DC CONVERTER;ADP; INTERNAL ENCLOSED ASSEMBLY [POWER SUPPLY] [ WARRANTY/ MAINTENANCE SUPPORT] CHINA Banglore Air Cargo 1 0.0424 PCS 42362.0
2016-11-01 85044090 0957-2479 PWR-SPLY-AC-DC ADAPTER (STATIC CONVERTER FOR ADP) CHINA Delhi Air Cargo 2 0.0013 PCS 667.0
2016-11-02 85044029 VI-AIM-II AC-DC CONVERTER MODULE, 457911700266 PO 4100041438 CHINA Delhi Air Cargo 25 0.098 NOS 3918.0
2016-11-02 85423100 KAAR0001, DC/AC CONVERTER 5V-4.5W (INTEGRATED CIRCUITS) BELGIUM Delhi Air Cargo 20 0.0077 PCS 384.0

Ac Dc Converters Trade Data - Indian Ports

S. No Product Product Code Quantity Value (INR in Million) Unit Origin Port Destination Port
4909017537 - DC-AC INVERTER 48VDC 18A 230VAC 3.15A WZ900A (STATIC CONVERTER FOR TELECOMMUNICATION APPARATUS), MAKE:-SUGI 85044010 25 0.2002 PCS CHINA Patparganj
AC DC CONVERTER 36W 36V 1A 2422764 85044010 1 0.0015 NOS UNITED KINGDOM Banglore Air Cargo
205 AC/DC UNIT REC-UNIT, MACHINERY PARTS FOR HONDA, TO CONVERT THE AC VOLTAGE INTO DC VOLTAGE, FOR CAPTIVE CONSUMPTION 85044090 1 1.076 PCS JAPAN Patparganj
AC/DC CONVERTERS 5V 32W P/N.2868541 85044090 12 0.0636 UNT SINGAPORE Hyderabad Air Cargo
DC/AC CONVERTER(PART#DT30)(PARTS FOR MFG OF HELICOPTERS)(PO#5079469) 85044090 35 6.343 NOS UNITED STATES Banglore Air Cargo
39Y7385 AC-DC CONVERTER;ADP;INTERNAL ENCLOSED ASSEMBLY;1300WATTS (POWER SUPPLY) (WARRANTY /MAINTENANCE SUPPORT PURPOSE) 85044029 2 0.0166 PCS CHINA Banglore Air Cargo
69Y5954 AC-DC CONVERTER;ADP;INTERNAL ENCLOSED ASSEMBLY;1400WATTS (POWER SUPPLY) (WARRANTY /MAINTENANCE SUPPORT PURPOSE) 85044029 1 0.0076 PCS CHINA Banglore Air Cargo
3BHE024360R0001 IC158_REV05 DC-AC CONVERTER 85044010 60 1.2169 PCS SWITZERLAND Banglore Air Cargo
94Y8255 AC-DC CONVERTER;ADP;INTERNAL ENCLOSED ASSEMBLY;3160WATTS (POWER SUPPLY) (WARRANTY /MAINTENANCE SUPPORT PURPOSE) 85044029 2 0.0418 PCS CHINA Banglore Air Cargo
FW747 AC-DC CONVERTER;ADP;INTERNAL ENCLOSED ASSEMBLY;850 WATTS (POWER SUPPLY) (WARRANTY /MAINTENANCE SUPPORT PURPOSE) 85044029 1 0.0327 PCS CHINA Banglore Air Cargo
0957-2259 PWR-SPLY-AC-DC ADAPTER;50W AMETHYST (STATIC CONVERTER FOR ADP) 85044090 11 0.0113 PCS CHINA Delhi Air Cargo
0957-2259 PWR-SPLY-AC-DC ADAPTER;50W AMETHYST (STATIC CONVERTER FOR ADP) (B/A-9204,B/G-2301) 85044090 7 0.0081 PCS CHINA Delhi Air Cargo
0957-2479 PWR-SPLY-AC-DC ADAPTER (STATIC CONVERTER FOR ADP) 85044090 2 0.0016 PCS CHINA Delhi Air Cargo
4W AC/DC-CONVERTER POWERLINE (RAC04-12SC/277-E) 85049090 251 0.1125 PCS SINGAPORE Banglore Air Cargo
SP23P100D15 CLOSED LOOP TYPE CURRENT B1343115 AC DC ADAPTERS CONVERTERS CHARGERS TRANSFORMER (PARTS FOR PROJECTOR) 85043100 1600 0.6649 PCS MALAYSIA Delhi Air Cargo
PHOENIX CONTACT AC DC CONVERTER INPUT AC 100 240V,OUTPUT DC 24V 10A (SHIPS SPARES FOR M.V. LACHUNG) 85044010 1 0.1303 PCS JAPAN Bombay Air Cargo
AC/DC CONVERTER 60W 12V - MEDICAL AC/DC CONVERTER 60W 12V KIT 85044010 1 0.0095 PCS ITALY Pune-Talegoan ICD
POWER SUPPLY, AC-DC CONVERTER P/N. GEN50-30 85044029 1 0.0927 PCS SINGAPORE Banglore Air Cargo
POWER SUPPLY, AC-DC CONVERTER P/N. HWS15A-5/A 85044029 2 0.0035 PCS SINGAPORE Banglore Air Cargo
POWER SUPPLY, AC-DC CONVERTER P/N. HWS50A-5/A 85044029 1 0.0029 PCS SINGAPORE Banglore Air Cargo
POWER SUPPLY, AC-DC CONVERTER P/N. Z36-12/L 85044029 1 0.0784 PCS SINGAPORE Banglore Air Cargo
POWER SUPPLY, AC-DC CONVERTER P/N. Z36-24-L 85044029 1 0.0997 PCS SINGAPORE Banglore Air Cargo
POWER SUPPLY, AC-DC CONVERTER P/N. Z36-6 85044029 2 0.1201 PCS SINGAPORE Banglore Air Cargo
TEXTILE MACHINERY PARTS: CONVERTER (AC/DC) 9C1N170040 85044090 1 0.0049 PCS JAPAN Chennai Air Cargo
0957-2479 PWR-SPLY-AC-DC ADAPTER (STATIC CONVERTER FOR ADP) 85044090 2 0.0027 PCS CHINA Delhi Air Cargo

Looking to import Ac Dc Converters?

With end to end global trade solutions from Connect2India, we enable Indian SMEs to start and grow their business globally

There is a total of 101 countries India imports Ac Dc Converters from. The dollar value of Ac Dc Converters import in 2020-2021 (Apr-Nov) stood at 550.03 USD Million and 970.23 USD Million in 2018, which shows a growth of 6.67% from the previous year’s import value which was 909.53 USD Million in 2017. Year on year the import of Ac Dc Converters in India grew by 76.38% during 2014 to 2018.

Preferred nations for indian Ac Dc Converters buyers are China (282.17 USD Million), Germany (52.01 USD Million), China, Hong Kong SAR (35.81 USD Million), Singapore (26.68 USD Million), USA (21.98 USD Million) . These 5 countries in total sold 418.65 USD Million value of Ac Dc Converters to India which rounds up to 76.11% of the Ac Dc Converters import into India.

The data provided on the page shows the top 10 countries from where India imports Ac Dc Converters from. In the year 2020-2021 (Apr-Nov), India imported Ac Dc Converters worth 550.03 USD Million as compared to 970.23 USD Million in the year 2018.

Country Value (USD Million) Share (%)
China 282.17 51.3
Germany 52.01 9.46
China, Hong Kong SAR 35.81 6.51
Singapore 26.68 4.85
USA 21.98 4.0
Viet Nam 15.29 2.78
Italy 15.08 2.74
Japan 14.55 2.65
Rep. of Korea 14.49 2.63
TAIWAN 7.84 1.43

Among the top importing countries, India imported the highest dollar worth of Ac Dc Converters from China with shipments in 2020-2021 (Apr-Nov) valued at 282.17 USD Million which is greater than the previous year Ac Dc Converters shipments from China into India. In second place was Germany, from which India imported around 52.01 USD Million worth of Ac Dc Converters. The top 10 countries shared 88.34% of the Ac Dc Converters import to India.

From the Ac Dc Converters importing nations of India, recorded the fastest growth in their Ac Dc Converters export to India with % rise in the Ac Dc Converters import to India.

Below is the list of all countries for Ac Dc Converters import to India.

Country Value (USD Million) Share (%)
Israel 7.12 1.29
United Kingdom 6.91 1.26
United Arab Emirates 5.43 0.99
Netherlands 4.96 0.9
France 4.95 0.9
Malaysia 4.47 0.81
Finland 4.11 0.75
Switzerland 3.84 0.7
Belgium 2.83 0.51
Thailand 2.52 0.46
Denmark 2.51 0.46
Sri Lanka 2.43 0.44
Indonesia 1.42 0.26
Sweden 1.31 0.24
Austria 1.14 0.21
Spain 1.14 0.21
Canada 1.1 0.2
Turkey 1.05 0.19
Australia 0.72 0.13
New Zealand 0.61 0.11

Combinedly all the above countries exported 546.47 million dollar of Ac Dc Converters to India.

Yearwise analysis of Ac Dc Converters import to India

Below is the detailed list of Ac Dc Converters import to India with quantity, volume, price, origin port and the destination port.

Increase your Ac Dc Converters imports with steady access to working capital with our import financing solutions at Connect2India.

Looking to import Ac Dc Converters from genuine and best quality Indian suppliers?

Ac Dc Converters import analysis - Monthwise

The data shows the top 20 countries from where India imported Ac Dc Converters in November 2020.

  • India Imported Ac Dc Converters worth 42.09 USD million from China in November 2020.
  • The total quantity of Ac Dc Converters imported from China was 20765190.
  • India imported Ac Dc Converters worth of 6.24 USD million in November 2020 alone from Germany.
  • India has imported Ac Dc Converters value worth 4.49 USD Million from China, Hong Kong SAR in November 2020.
  • India imported a volume of 44180 metric tons of Ac Dc Converters from Japan in tNovember 2020 and was 4th in the list of countries India imported Ac Dc Converters from.
  • A total of 30719900 quantity of Ac Dc Converters was imported from the mentioned countries.
S.no. Country Qty Value(USD Million) Month year
China 20765190 42.09 November 2020
Germany 50210 6.24 November 2020
China, Hong Kong SAR 9806510 4.49 November 2020
Japan 44180 4.04 November 2020
USA 53810 3.99 November 2020
Viet Nam 1431570 3.82 November 2020
Singapore 114850 2.42 November 2020
Rep. of Korea 193310 2.14 November 2020
Italy 10400 1.74 November 2020
TAIWAN 127470 1.24 November 2020
Malaysia 12549 1.12 November 2020
United Arab Emirates 47120 1.0 November 2020
Netherlands 49080 0.66 November 2020
Israel 21130 0.64 November 2020
Switzerland 5130 0.59 November 2020
United Kingdom 30110 0.59 November 2020
Sri Lanka 2570 0.58 November 2020
Finland 160 0.58 November 2020
Australia 26600 0.31 November 2020
Denmark 1580 0.29 November 2020

Graphical representation for Ac Dc Converters import

Ac Dc Converters - Recent import data

Ac Dc Converters in India is imported from more than 101 countries.

In FY 2020-2021 (Apr-Nov), Around 282.17 USD Million of Ac Dc Converters is imported to India from China. It is around 51.3% of the total import of Ac Dc Converters.

How connect2india can help you import Ac Dc Converters?

Connect2India can help you find Ac Dc Converters suppliers / exporters in more than 100 countries, arrange import orders for Ac Dc Converters, find the most effective market to import Ac Dc Converters, help you out with procedures and formalities required to import Ac Dc Converters in India and also assist you in Ac Dc Converters shipment and logistics. Our trade experts are always available for any help regarding the import of Ac Dc Converters and its products. If you want more information, please get in touch with our trade experts here

People Also Ask

From which countries does India import Ac Dc Converters from?

India imports Ac Dc Converters from China (282.17 USD Million), Germany (52.01 USD Million), China, Hong Kong SAR (35.81 USD Million), Singapore (26.68 USD Million), USA (21.98 USD Million) .

Whom can I contact for more information on Ac Dc Converters import to India?

You can submit your requirement on Connect2India and our representative will get in touch with you with more information about Ac Dc Converters. Alternatively, you can call us @ +91-7876759999 or email us to info@connect2India.com

Which is the most popular Indian port for Ac Dc Converters import?

Banglore Air Cargo is the most popular port for Ac Dc Converters import to India

What are the top three import shipments of Ac Dc Converters traded to India?

Following are the top three import shipments of Ac Dc Converters traded to India :

  • CONVERTER, AC-DC 1-479-609-21 SNC-RX550N(PART FOR SECURITYCAMERA)
  • AC/DC CONVERTER (PART# 6696950) (SPARE FOR VENTILATOR)
  • 94Y8077 900W PS AC-DC CONVERTER; ADP; INTERNAL ENCLOSED ASSEMBLY; 900WATTS (POWER SUPPLY FOR COMPUTER) (WARRANTY/MAINTEN